Algolake — VCPX — position and weather

sailwx.info

Track history (hours):
 
Tides and Currents Weather Stations Pressure Air Temp Water Temp Dewpoint Dewpoint Depression Visibility Wind Speed Wind Dir Waves Ship Positions

Algolake

Last reported at 2017-Sep-19 05:07 UTC. Time now 2017-Sep-19 18:42 UTC.
Position N 43°45' W 081°44'.

Length 223 m; draft 8.3 m.

Type: Cargo ship. MMSI: 316001795.

Date/timePositionNaut miles runAvg speedWind from/ knotsBaromVisibWave heightAir tempDewpointWater temp
2017-Sep-19 05:07N 43°45' W 081°44'0 0.0
2017-Sep-19 04:43N 43°45' W 081°44'71 1.6
2017-Sep-17 08:00N 44°42' W 082°42'40 9.9 210 / 131018.010.8 17.015.0
2017-Sep-17 04:00N 45°18' W 083°06'1013.0 190 / 201017.010.8 20.020.0
2017-Sep-17 03:14N 45°26' W 083°13'311.2
2017-Sep-17 03:00N 45°28' W 083°16'611.3
2017-Sep-17 02:30N 45°32' W 083°21'611.2
2017-Sep-17 02:00N 45°37' W 083°27'711.3
2017-Sep-17 01:22N 45°42' W 083°34'411.2
2017-Sep-17 00:59N 45°45' W 083°38'1311.0
2017-Sep-16 23:46N 45°55' W 083°51'310.1
2017-Sep-16 23:30N 45°57' W 083°54'16 8.2
2017-Sep-16 21:32N 46°11' W 084°05'0 9.4
2017-Sep-16 21:30N 46°11' W 084°06'113 8.3
2017-Sep-16 08:00N 47°18' W 086°18'37 9.3 190 / 201015.010.8 17.015.0
2017-Sep-16 04:00N 47°36' W 087°06'16 0.5 060 / 20 10.8 15.012.0
2017-Sep-14 21:52N 47°49' W 087°21'2932.8
2017-Sep-14 21:00N 47°24' W 087°00'48 9.7 140 / 201010.010.8 17.0
2017-Sep-14 16:04N 47°13' W 085°51'891.8
2017-Sep-14 16:00N 47°18' W 086°00'91491.6 160 / 15202.310.8 -6.617.0
2017-Sep-14 15:59N 47°13' W 085°50'2412.2
2017-Sep-14 14:02N 47°00' W 085°20'212.0
2017-Sep-14 13:51N 46°59' W 085°17'512.0
2017-Sep-14 13:26N 46°57' W 085°11'711.9
2017-Sep-14 12:48N 46°53' W 085°01'811.9
2017-Sep-14 12:09N 46°49' W 084°52'211.0
2017-Sep-14 11:56N 46°47' W 084°50'511.9
2017-Sep-14 11:30N 46°42' W 084°47'23 5.5
2017-Sep-14 07:18N 46°30' W 084°19'2 6.0
2017-Sep-14 06:56N 46°28' W 084°17'3 7.3
2017-Sep-14 06:29N 46°25' W 084°15'4 9.0
2017-Sep-14 06:00N 46°21' W 084°12'4 7.8
2017-Sep-14 05:29N 46°19' W 084°07'4 7.6
2017-Sep-14 05:00N 46°15' W 084°06'4 7.5
2017-Sep-14 04:30N 46°12' W 084°06'510.3
2017-Sep-14 04:00N 46°08' W 084°01'5 9.3
2017-Sep-14 03:30N 46°04' W 083°59'510.1
2017-Sep-14 03:00N 46°01' W 083°53'611.4
2017-Sep-14 02:30N 45°55' W 083°52'612.0
2017-Sep-14 02:00N 45°50' W 083°48'612.0
2017-Sep-14 01:30N 45°45' W 083°43'612.0
2017-Sep-14 01:00N 45°40' W 083°38'611.9
2017-Sep-14 00:30N 45°35' W 083°33'611.9
2017-Sep-14 00:00N 45°30' W 083°28'612.0
2017-Sep-13 23:30N 45°26' W 083°23'612.3
2017-Sep-13 23:00N 45°20' W 083°18'612.3
2017-Sep-13 22:30N 45°15' W 083°13'612.4
2017-Sep-13 22:00N 45°10' W 083°08'3534.4
2017-Sep-13 21:00N 44°36' W 083°00'35 6.9 090 / 81011.010.8 20.0
2017-Sep-13 16:00N 44°06' W 082°36'130 5.4 090 / 51011.0 20.018.0
2017-Sep-12 16:00N 42°00' W 081°54'9812.2 030 / 8432.610.8 21.017.0
2017-Sep-12 08:00N 42°30' W 079°48'   090 / 51018.210.8 19.014.0
Track history (hours):
 
Tides and Currents Weather Stations Pressure Air Temp Water Temp Dewpoint Dewpoint Depression Visibility Wind Speed Wind Dir Waves Ship Positions

Algolake

Last reported at 2017-Sep-19 05:07 UTC. Time now 2017-Sep-19 18:42 UTC.
Position N 43°45' W 081°44'.

Length 223 m; draft 8.3 m.

Type: Cargo ship. MMSI: 316001795.

Date/timePositionNaut miles runAvg speedWind from/ knotsBaromVisibWave heightAir tempDewpointWater temp
2017-Sep-19 05:07N 43°45' W 081°44'0 0.0
2017-Sep-19 04:43N 43°45' W 081°44'71 1.6
2017-Sep-17 08:00N 44°42' W 082°42'40 9.9 210 / 131018.010.8 17.015.0
2017-Sep-17 04:00N 45°18' W 083°06'1013.0 190 / 201017.010.8 20.020.0
2017-Sep-17 03:14N 45°26' W 083°13'311.2
2017-Sep-17 03:00N 45°28' W 083°16'611.3
2017-Sep-17 02:30N 45°32' W 083°21'611.2
2017-Sep-17 02:00N 45°37' W 083°27'711.3
2017-Sep-17 01:22N 45°42' W 083°34'411.2
2017-Sep-17 00:59N 45°45' W 083°38'1311.0
2017-Sep-16 23:46N 45°55' W 083°51'310.1
2017-Sep-16 23:30N 45°57' W 083°54'16 8.2
2017-Sep-16 21:32N 46°11' W 084°05'0 9.4
2017-Sep-16 21:30N 46°11' W 084°06'113 8.3
2017-Sep-16 08:00N 47°18' W 086°18'37 9.3 190 / 201015.010.8 17.015.0
2017-Sep-16 04:00N 47°36' W 087°06'16 0.5 060 / 20 10.8 15.012.0
2017-Sep-14 21:52N 47°49' W 087°21'2932.8
2017-Sep-14 21:00N 47°24' W 087°00'48 9.7 140 / 201010.010.8 17.0
2017-Sep-14 16:04N 47°13' W 085°51'891.8
2017-Sep-14 16:00N 47°18' W 086°00'91491.6 160 / 15202.310.8 -6.617.0
2017-Sep-14 15:59N 47°13' W 085°50'2412.2
2017-Sep-14 14:02N 47°00' W 085°20'212.0
2017-Sep-14 13:51N 46°59' W 085°17'512.0
2017-Sep-14 13:26N 46°57' W 085°11'711.9
2017-Sep-14 12:48N 46°53' W 085°01'811.9
2017-Sep-14 12:09N 46°49' W 084°52'211.0
2017-Sep-14 11:56N 46°47' W 084°50'511.9
2017-Sep-14 11:30N 46°42' W 084°47'23 5.5
2017-Sep-14 07:18N 46°30' W 084°19'2 6.0
2017-Sep-14 06:56N 46°28' W 084°17'3 7.3
2017-Sep-14 06:29N 46°25' W 084°15'4 9.0
2017-Sep-14 06:00N 46°21' W 084°12'4 7.8
2017-Sep-14 05:29N 46°19' W 084°07'4 7.6
2017-Sep-14 05:00N 46°15' W 084°06'4 7.5
2017-Sep-14 04:30N 46°12' W 084°06'510.3
2017-Sep-14 04:00N 46°08' W 084°01'5 9.3
2017-Sep-14 03:30N 46°04' W 083°59'510.1
2017-Sep-14 03:00N 46°01' W 083°53'611.4
2017-Sep-14 02:30N 45°55' W 083°52'612.0
2017-Sep-14 02:00N 45°50' W 083°48'612.0
2017-Sep-14 01:30N 45°45' W 083°43'612.0
2017-Sep-14 01:00N 45°40' W 083°38'611.9
2017-Sep-14 00:30N 45°35' W 083°33'611.9
2017-Sep-14 00:00N 45°30' W 083°28'612.0
2017-Sep-13 23:30N 45°26' W 083°23'612.3
2017-Sep-13 23:00N 45°20' W 083°18'612.3
2017-Sep-13 22:30N 45°15' W 083°13'612.4
2017-Sep-13 22:00N 45°10' W 083°08'3534.4
2017-Sep-13 21:00N 44°36' W 083°00'35 6.9 090 / 81011.010.8 20.0
2017-Sep-13 16:00N 44°06' W 082°36'130 5.4 090 / 51011.0 20.018.0
2017-Sep-12 16:00N 42°00' W 081°54'9812.2 030 / 8432.610.8 21.017.0
2017-Sep-12 08:00N 42°30' W 079°48'   090 / 51018.210.8 19.014.0

Dump ship's entire track history